sensor_id;sensor_type;location;lat;lon;timestamp;P1;durP1;ratioP1;P2;durP2;ratioP2
13415;SDS011;6779;50.150;8.680;2022-11-20T00:01:07;23.83;;;12.20;;
13415;SDS011;6779;50.150;8.680;2022-11-20T00:03:34;24.93;;;11.83;;
13415;SDS011;6779;50.150;8.680;2022-11-20T00:06:04;25.80;;;11.40;;
13415;SDS011;6779;50.150;8.680;2022-11-20T00:08:31;21.13;;;11.83;;
13415;SDS011;6779;50.150;8.680;2022-11-20T00:10:57;19.40;;;10.40;;
13415;SDS011;6779;50.150;8.680;2022-11-20T00:13:27;23.77;;;12.20;;
13415;SDS011;6779;50.150;8.680;2022-11-20T00:16:04;21.13;;;11.20;;
13415;SDS011;6779;50.150;8.680;2022-11-20T00:18:32;23.70;;;11.40;;
13415;SDS011;6779;50.150;8.680;2022-11-20T00:21:05;24.87;;;12.60;;
13415;SDS011;6779;50.150;8.680;2022-11-20T00:23:35;25.40;;;10.97;;
13415;SDS011;6779;50.150;8.680;2022-11-20T00:26:02;21.97;;;11.70;;
13415;SDS011;6779;50.150;8.680;2022-11-20T00:28:29;23.97;;;12.17;;
13415;SDS011;6779;50.150;8.680;2022-11-20T00:31:07;20.93;;;10.43;;
13415;SDS011;6779;50.150;8.680;2022-11-20T00:33:37;18.67;;;10.20;;
13415;SDS011;6779;50.150;8.680;2022-11-20T00:36:04;24.50;;;11.37;;
13415;SDS011;6779;50.150;8.680;2022-11-20T00:38:31;16.77;;;9.80;;
13415;SDS011;6779;50.150;8.680;2022-11-20T00:40:58;22.03;;;11.33;;
13415;SDS011;6779;50.150;8.680;2022-11-20T00:43:25;20.40;;;11.13;;
13415;SDS011;6779;50.150;8.680;2022-11-20T00:45:56;21.57;;;11.30;;
13415;SDS011;6779;50.150;8.680;2022-11-20T00:48:23;19.93;;;11.17;;
13415;SDS011;6779;50.150;8.680;2022-11-20T00:50:48;18.17;;;10.47;;
13415;SDS011;6779;50.150;8.680;2022-11-20T00:53:14;21.20;;;10.93;;
13415;SDS011;6779;50.150;8.680;2022-11-20T00:55:39;23.87;;;11.67;;
13415;SDS011;6779;50.150;8.680;2022-11-20T00:58:05;19.43;;;11.00;;
13415;SDS011;6779;50.150;8.680;2022-11-20T01:00:31;18.50;;;10.47;;
13415;SDS011;6779;50.150;8.680;2022-11-20T01:02:57;21.53;;;11.10;;
13415;SDS011;6779;50.150;8.680;2022-11-20T01:05:22;22.37;;;10.80;;
13415;SDS011;6779;50.150;8.680;2022-11-20T01:07:48;18.87;;;10.93;;
13415;SDS011;6779;50.150;8.680;2022-11-20T01:10:13;19.83;;;9.97;;
13415;SDS011;6779;50.150;8.680;2022-11-20T01:12:39;19.93;;;11.43;;
13415;SDS011;6779;50.150;8.680;2022-11-20T01:15:04;19.40;;;10.03;;
13415;SDS011;6779;50.150;8.680;2022-11-20T01:17:31;20.33;;;10.50;;
13415;SDS011;6779;50.150;8.680;2022-11-20T01:19:57;19.77;;;10.87;;
13415;SDS011;6779;50.150;8.680;2022-11-20T01:22:22;20.37;;;10.87;;
13415;SDS011;6779;50.150;8.680;2022-11-20T01:24:48;24.10;;;11.93;;
13415;SDS011;6779;50.150;8.680;2022-11-20T01:27:13;24.17;;;11.77;;
13415;SDS011;6779;50.150;8.680;2022-11-20T01:29:39;24.83;;;11.93;;
13415;SDS011;6779;50.150;8.680;2022-11-20T01:32:04;23.07;;;11.33;;
13415;SDS011;6779;50.150;8.680;2022-11-20T01:34:30;20.37;;;10.63;;
13415;SDS011;6779;50.150;8.680;2022-11-20T01:36:56;22.70;;;12.03;;
13415;SDS011;6779;50.150;8.680;2022-11-20T01:39:22;19.20;;;10.80;;
13415;SDS011;6779;50.150;8.680;2022-11-20T01:41:50;21.67;;;11.67;;
13415;SDS011;6779;50.150;8.680;2022-11-20T01:44:56;23.07;;;10.73;;
13415;SDS011;6779;50.150;8.680;2022-11-20T01:49:59;20.93;;;11.40;;
13415;SDS011;6779;50.150;8.680;2022-11-20T01:52:42;22.47;;;11.17;;
13415;SDS011;6779;50.150;8.680;2022-11-20T01:55:21;24.33;;;12.53;;
13415;SDS011;6779;50.150;8.680;2022-11-20T01:57:49;22.50;;;11.60;;
13415;SDS011;6779;50.150;8.680;2022-11-20T02:00:16;24.33;;;11.93;;
13415;SDS011;6779;50.150;8.680;2022-11-20T02:02:45;21.63;;;11.83;;
13415;SDS011;6779;50.150;8.680;2022-11-20T02:08:02;25.37;;;11.47;;
13415;SDS011;6779;50.150;8.680;2022-11-20T02:10:29;20.23;;;10.97;;
13415;SDS011;6779;50.150;8.680;2022-11-20T02:12:55;22.43;;;12.07;;
13415;SDS011;6779;50.150;8.680;2022-11-20T02:15:40;19.33;;;10.33;;
13415;SDS011;6779;50.150;8.680;2022-11-20T02:18:06;23.80;;;12.07;;
13415;SDS011;6779;50.150;8.680;2022-11-20T02:20:34;21.33;;;11.37;;
13415;SDS011;6779;50.150;8.680;2022-11-20T02:23:02;23.50;;;11.70;;
13415;SDS011;6779;50.150;8.680;2022-11-20T02:25:34;22.97;;;11.47;;
13415;SDS011;6779;50.150;8.680;2022-11-20T02:28:01;20.40;;;10.90;;
13415;SDS011;6779;50.150;8.680;2022-11-20T02:30:27;21.90;;;11.33;;
13415;SDS011;6779;50.150;8.680;2022-11-20T02:32:53;22.20;;;11.23;;
13415;SDS011;6779;50.150;8.680;2022-11-20T02:37:44;24.40;;;11.20;;
13415;SDS011;6779;50.150;8.680;2022-11-20T02:40:12;22.53;;;11.33;;
13415;SDS011;6779;50.150;8.680;2022-11-20T02:42:38;18.97;;;11.40;;
13415;SDS011;6779;50.150;8.680;2022-11-20T02:45:04;22.93;;;11.73;;
13415;SDS011;6779;50.150;8.680;2022-11-20T02:47:31;23.17;;;11.87;;
13415;SDS011;6779;50.150;8.680;2022-11-20T02:49:57;24.97;;;11.20;;
13415;SDS011;6779;50.150;8.680;2022-11-20T02:52:23;19.33;;;10.97;;
13415;SDS011;6779;50.150;8.680;2022-11-20T02:54:48;25.13;;;12.73;;
13415;SDS011;6779;50.150;8.680;2022-11-20T02:57:14;22.27;;;11.33;;
13415;SDS011;6779;50.150;8.680;2022-11-20T02:59:39;24.77;;;12.10;;
13415;SDS011;6779;50.150;8.680;2022-11-20T03:02:05;23.17;;;11.63;;
13415;SDS011;6779;50.150;8.680;2022-11-20T03:04:30;22.53;;;11.53;;
13415;SDS011;6779;50.150;8.680;2022-11-20T03:06:56;21.00;;;12.07;;
13415;SDS011;6779;50.150;8.680;2022-11-20T03:09:21;23.77;;;12.10;;
13415;SDS011;6779;50.150;8.680;2022-11-20T03:11:47;26.70;;;12.73;;
13415;SDS011;6779;50.150;8.680;2022-11-20T03:14:13;23.37;;;12.57;;
13415;SDS011;6779;50.150;8.680;2022-11-20T03:16:39;23.57;;;12.67;;
13415;SDS011;6779;50.150;8.680;2022-11-20T03:19:04;26.47;;;12.87;;
13415;SDS011;6779;50.150;8.680;2022-11-20T03:21:30;28.87;;;12.73;;
13415;SDS011;6779;50.150;8.680;2022-11-20T03:23:58;27.83;;;13.33;;
13415;SDS011;6779;50.150;8.680;2022-11-20T03:26:24;26.33;;;12.70;;
13415;SDS011;6779;50.150;8.680;2022-11-20T03:28:52;23.20;;;12.40;;
13415;SDS011;6779;50.150;8.680;2022-11-20T03:31:26;23.63;;;12.23;;
13415;SDS011;6779;50.150;8.680;2022-11-20T03:33:53;26.47;;;13.10;;
13415;SDS011;6779;50.150;8.680;2022-11-20T03:36:20;27.07;;;12.67;;
13415;SDS011;6779;50.150;8.680;2022-11-20T03:38:46;25.07;;;13.20;;
13415;SDS011;6779;50.150;8.680;2022-11-20T03:41:14;25.50;;;12.73;;
13415;SDS011;6779;50.150;8.680;2022-11-20T03:43:41;23.20;;;12.70;;
13415;SDS011;6779;50.150;8.680;2022-11-20T03:46:06;25.97;;;13.00;;
13415;SDS011;6779;50.150;8.680;2022-11-20T03:48:32;25.60;;;12.40;;
13415;SDS011;6779;50.150;8.680;2022-11-20T03:53:39;27.10;;;13.27;;
13415;SDS011;6779;50.150;8.680;2022-11-20T03:56:05;27.83;;;13.60;;
13415;SDS011;6779;50.150;8.680;2022-11-20T03:58:32;22.37;;;12.30;;
13415;SDS011;6779;50.150;8.680;2022-11-20T04:01:05;26.40;;;12.63;;
13415;SDS011;6779;50.150;8.680;2022-11-20T04:03:35;28.83;;;13.13;;
13415;SDS011;6779;50.150;8.680;2022-11-20T04:06:03;21.63;;;11.40;;
13415;SDS011;6779;50.150;8.680;2022-11-20T04:08:32;20.50;;;11.23;;
13415;SDS011;6779;50.150;8.680;2022-11-20T04:11:18;24.90;;;12.70;;
13415;SDS011;6779;50.150;8.680;2022-11-20T04:13:46;23.30;;;11.30;;
13415;SDS011;6779;50.150;8.680;2022-11-20T04:16:13;24.63;;;12.60;;
13415;SDS011;6779;50.150;8.680;2022-11-20T04:18:39;21.43;;;11.23;;
13415;SDS011;6779;50.150;8.680;2022-11-20T04:21:05;21.13;;;11.47;;
13415;SDS011;6779;50.150;8.680;2022-11-20T04:23:31;23.67;;;10.73;;
13415;SDS011;6779;50.150;8.680;2022-11-20T04:26:07;20.80;;;10.93;;
13415;SDS011;6779;50.150;8.680;2022-11-20T04:28:34;23.07;;;11.63;;
13415;SDS011;6779;50.150;8.680;2022-11-20T04:31:01;23.20;;;10.87;;
13415;SDS011;6779;50.150;8.680;2022-11-20T04:33:37;26.17;;;12.57;;
13415;SDS011;6779;50.150;8.680;2022-11-20T04:36:07;23.80;;;11.30;;
13415;SDS011;6779;50.150;8.680;2022-11-20T04:38:44;23.60;;;11.13;;
13415;SDS011;6779;50.150;8.680;2022-11-20T04:41:17;21.63;;;11.03;;
13415;SDS011;6779;50.150;8.680;2022-11-20T04:43:47;21.67;;;10.80;;
13415;SDS011;6779;50.150;8.680;2022-11-20T04:46:14;21.80;;;11.50;;
13415;SDS011;6779;50.150;8.680;2022-11-20T04:48:41;21.23;;;11.60;;
13415;SDS011;6779;50.150;8.680;2022-11-20T04:51:06;21.37;;;11.20;;
13415;SDS011;6779;50.150;8.680;2022-11-20T04:53:32;22.27;;;11.33;;
13415;SDS011;6779;50.150;8.680;2022-11-20T04:56:01;23.27;;;12.40;;
13415;SDS011;6779;50.150;8.680;2022-11-20T04:58:27;22.67;;;11.90;;
13415;SDS011;6779;50.150;8.680;2022-11-20T05:00:53;23.47;;;11.87;;
13415;SDS011;6779;50.150;8.680;2022-11-20T05:03:25;23.87;;;11.53;;
13415;SDS011;6779;50.150;8.680;2022-11-20T05:05:50;24.13;;;11.63;;
13415;SDS011;6779;50.150;8.680;2022-11-20T05:08:16;24.13;;;12.40;;
13415;SDS011;6779;50.150;8.680;2022-11-20T05:10:41;23.33;;;11.97;;
13415;SDS011;6779;50.150;8.680;2022-11-20T05:13:07;25.57;;;12.60;;
13415;SDS011;6779;50.150;8.680;2022-11-20T05:15:32;23.17;;;12.13;;
13415;SDS011;6779;50.150;8.680;2022-11-20T05:17:57;23.30;;;11.27;;
13415;SDS011;6779;50.150;8.680;2022-11-20T05:20:23;22.93;;;11.97;;
13415;SDS011;6779;50.150;8.680;2022-11-20T05:22:48;22.70;;;11.53;;
13415;SDS011;6779;50.150;8.680;2022-11-20T05:25:14;26.17;;;12.97;;
13415;SDS011;6779;50.150;8.680;2022-11-20T05:27:39;26.03;;;12.70;;
13415;SDS011;6779;50.150;8.680;2022-11-20T05:30:05;24.20;;;12.27;;
13415;SDS011;6779;50.150;8.680;2022-11-20T05:32:31;23.07;;;12.30;;
13415;SDS011;6779;50.150;8.680;2022-11-20T05:34:57;25.57;;;12.03;;
13415;SDS011;6779;50.150;8.680;2022-11-20T05:37:22;25.37;;;13.23;;
13415;SDS011;6779;50.150;8.680;2022-11-20T05:39:48;22.80;;;11.50;;
13415;SDS011;6779;50.150;8.680;2022-11-20T05:42:14;22.37;;;12.03;;
13415;SDS011;6779;50.150;8.680;2022-11-20T05:44:55;23.20;;;10.97;;
13415;SDS011;6779;50.150;8.680;2022-11-20T05:47:31;19.40;;;10.90;;
13415;SDS011;6779;50.150;8.680;2022-11-20T05:49:57;23.80;;;12.77;;
13415;SDS011;6779;50.150;8.680;2022-11-20T05:52:23;24.23;;;11.60;;
13415;SDS011;6779;50.150;8.680;2022-11-20T05:54:49;26.97;;;12.63;;
13415;SDS011;6779;50.150;8.680;2022-11-20T05:57:14;26.00;;;13.40;;
13415;SDS011;6779;50.150;8.680;2022-11-20T05:59:40;23.80;;;11.73;;
13415;SDS011;6779;50.150;8.680;2022-11-20T06:02:06;26.73;;;13.53;;
13415;SDS011;6779;50.150;8.680;2022-11-20T06:04:31;28.07;;;12.73;;
13415;SDS011;6779;50.150;8.680;2022-11-20T06:06:57;26.53;;;12.53;;
13415;SDS011;6779;50.150;8.680;2022-11-20T06:09:22;27.43;;;13.20;;
13415;SDS011;6779;50.150;8.680;2022-11-20T06:11:48;25.43;;;12.37;;
13415;SDS011;6779;50.150;8.680;2022-11-20T06:14:13;25.67;;;12.73;;
13415;SDS011;6779;50.150;8.680;2022-11-20T06:16:39;23.57;;;12.10;;
13415;SDS011;6779;50.150;8.680;2022-11-20T06:19:04;25.17;;;12.30;;
13415;SDS011;6779;50.150;8.680;2022-11-20T06:21:30;24.70;;;13.03;;
13415;SDS011;6779;50.150;8.680;2022-11-20T06:23:55;24.40;;;12.27;;
13415;SDS011;6779;50.150;8.680;2022-11-20T06:26:25;26.03;;;12.20;;
13415;SDS011;6779;50.150;8.680;2022-11-20T06:28:52;27.40;;;12.53;;
13415;SDS011;6779;50.150;8.680;2022-11-20T06:31:19;28.43;;;13.50;;
13415;SDS011;6779;50.150;8.680;2022-11-20T06:33:46;20.53;;;11.87;;
13415;SDS011;6779;50.150;8.680;2022-11-20T06:36:13;28.03;;;13.80;;
13415;SDS011;6779;50.150;8.680;2022-11-20T06:38:40;31.10;;;13.33;;
13415;SDS011;6779;50.150;8.680;2022-11-20T06:41:06;27.67;;;13.93;;
13415;SDS011;6779;50.150;8.680;2022-11-20T06:43:35;28.13;;;13.67;;
13415;SDS011;6779;50.150;8.680;2022-11-20T06:46:01;29.43;;;13.43;;
13415;SDS011;6779;50.150;8.680;2022-11-20T06:48:27;32.93;;;13.03;;
13415;SDS011;6779;50.150;8.680;2022-11-20T06:50:53;31.50;;;13.87;;
13415;SDS011;6779;50.150;8.680;2022-11-20T06:53:19;29.67;;;12.73;;
13415;SDS011;6779;50.150;8.680;2022-11-20T06:55:45;36.53;;;15.17;;
13415;SDS011;6779;50.150;8.680;2022-11-20T06:58:12;34.00;;;13.97;;
13415;SDS011;6779;50.150;8.680;2022-11-20T07:00:38;31.40;;;14.43;;
13415;SDS011;6779;50.150;8.680;2022-11-20T07:03:04;32.10;;;14.57;;
13415;SDS011;6779;50.150;8.680;2022-11-20T07:05:30;35.17;;;15.47;;
13415;SDS011;6779;50.150;8.680;2022-11-20T07:07:56;34.57;;;15.43;;
13415;SDS011;6779;50.150;8.680;2022-11-20T07:10:22;33.27;;;14.83;;
13415;SDS011;6779;50.150;8.680;2022-11-20T07:12:49;32.17;;;14.83;;
13415;SDS011;6779;50.150;8.680;2022-11-20T07:15:15;31.57;;;14.23;;
13415;SDS011;6779;50.150;8.680;2022-11-20T07:17:41;36.63;;;15.90;;
13415;SDS011;6779;50.150;8.680;2022-11-20T07:20:07;36.27;;;15.30;;
13415;SDS011;6779;50.150;8.680;2022-11-20T07:22:32;44.53;;;16.83;;
13415;SDS011;6779;50.150;8.680;2022-11-20T07:24:58;34.10;;;15.33;;
13415;SDS011;6779;50.150;8.680;2022-11-20T07:27:23;37.30;;;14.43;;
13415;SDS011;6779;50.150;8.680;2022-11-20T07:29:49;37.47;;;14.53;;
13415;SDS011;6779;50.150;8.680;2022-11-20T07:32:14;31.97;;;13.90;;
13415;SDS011;6779;50.150;8.680;2022-11-20T07:34:40;36.13;;;14.30;;
13415;SDS011;6779;50.150;8.680;2022-11-20T07:37:05;38.50;;;15.27;;
13415;SDS011;6779;50.150;8.680;2022-11-20T07:39:31;36.00;;;14.57;;
13415;SDS011;6779;50.150;8.680;2022-11-20T07:41:56;38.77;;;14.73;;
13415;SDS011;6779;50.150;8.680;2022-11-20T07:44:22;31.77;;;15.43;;
13415;SDS011;6779;50.150;8.680;2022-11-20T07:46:47;39.83;;;15.30;;
13415;SDS011;6779;50.150;8.680;2022-11-20T07:49:13;38.93;;;15.07;;
13415;SDS011;6779;50.150;8.680;2022-11-20T07:51:38;39.20;;;15.27;;
13415;SDS011;6779;50.150;8.680;2022-11-20T07:54:04;41.00;;;16.03;;
13415;SDS011;6779;50.150;8.680;2022-11-20T07:56:29;39.90;;;14.80;;
13415;SDS011;6779;50.150;8.680;2022-11-20T07:58:55;33.50;;;13.87;;
13415;SDS011;6779;50.150;8.680;2022-11-20T08:01:21;38.90;;;14.40;;
13415;SDS011;6779;50.150;8.680;2022-11-20T08:03:46;40.90;;;16.37;;
13415;SDS011;6779;50.150;8.680;2022-11-20T08:06:12;40.83;;;16.23;;
13415;SDS011;6779;50.150;8.680;2022-11-20T08:08:37;35.67;;;14.23;;
13415;SDS011;6779;50.150;8.680;2022-11-20T08:11:04;39.30;;;16.23;;
13415;SDS011;6779;50.150;8.680;2022-11-20T08:13:48;41.77;;;15.00;;
13415;SDS011;6779;50.150;8.680;2022-11-20T08:16:32;37.97;;;15.47;;
13415;SDS011;6779;50.150;8.680;2022-11-20T08:18:58;41.13;;;16.57;;
13415;SDS011;6779;50.150;8.680;2022-11-20T08:21:23;45.63;;;17.40;;
13415;SDS011;6779;50.150;8.680;2022-11-20T08:23:49;36.57;;;16.47;;
13415;SDS011;6779;50.150;8.680;2022-11-20T08:26:14;42.07;;;15.60;;
13415;SDS011;6779;50.150;8.680;2022-11-20T08:28:40;42.13;;;16.90;;
13415;SDS011;6779;50.150;8.680;2022-11-20T08:31:06;44.47;;;16.83;;
13415;SDS011;6779;50.150;8.680;2022-11-20T08:33:31;42.30;;;16.67;;
13415;SDS011;6779;50.150;8.680;2022-11-20T08:36:01;46.70;;;19.17;;
13415;SDS011;6779;50.150;8.680;2022-11-20T08:38:28;45.50;;;17.70;;
13415;SDS011;6779;50.150;8.680;2022-11-20T08:41:00;47.27;;;17.10;;
13415;SDS011;6779;50.150;8.680;2022-11-20T08:43:46;45.43;;;19.20;;
13415;SDS011;6779;50.150;8.680;2022-11-20T08:46:11;46.03;;;17.73;;
13415;SDS011;6779;50.150;8.680;2022-11-20T08:48:37;39.93;;;17.13;;
13415;SDS011;6779;50.150;8.680;2022-11-20T08:51:02;44.97;;;17.63;;
13415;SDS011;6779;50.150;8.680;2022-11-20T08:53:28;38.97;;;16.60;;
13415;SDS011;6779;50.150;8.680;2022-11-20T08:55:54;47.33;;;18.47;;
13415;SDS011;6779;50.150;8.680;2022-11-20T08:58:19;42.27;;;16.70;;
13415;SDS011;6779;50.150;8.680;2022-11-20T09:00:45;39.87;;;17.00;;
13415;SDS011;6779;50.150;8.680;2022-11-20T09:03:10;42.40;;;17.60;;
13415;SDS011;6779;50.150;8.680;2022-11-20T09:05:38;45.63;;;17.37;;
13415;SDS011;6779;50.150;8.680;2022-11-20T09:08:03;39.03;;;16.80;;
13415;SDS011;6779;50.150;8.680;2022-11-20T09:10:29;38.77;;;17.23;;
13415;SDS011;6779;50.150;8.680;2022-11-20T09:12:55;42.50;;;16.77;;
13415;SDS011;6779;50.150;8.680;2022-11-20T09:15:20;40.13;;;17.83;;
13415;SDS011;6779;50.150;8.680;2022-11-20T09:17:56;44.27;;;16.80;;
13415;SDS011;6779;50.150;8.680;2022-11-20T09:20:26;43.43;;;18.43;;
13415;SDS011;6779;50.150;8.680;2022-11-20T09:22:53;46.43;;;17.87;;
13415;SDS011;6779;50.150;8.680;2022-11-20T09:25:19;49.30;;;18.57;;
13415;SDS011;6779;50.150;8.680;2022-11-20T09:27:45;45.03;;;17.97;;
13415;SDS011;6779;50.150;8.680;2022-11-20T09:30:12;42.40;;;17.77;;
13415;SDS011;6779;50.150;8.680;2022-11-20T09:32:38;43.87;;;17.07;;
13415;SDS011;6779;50.150;8.680;2022-11-20T09:35:04;44.93;;;18.17;;
13415;SDS011;6779;50.150;8.680;2022-11-20T09:37:30;46.03;;;18.73;;
13415;SDS011;6779;50.150;8.680;2022-11-20T09:39:55;38.20;;;17.30;;
13415;SDS011;6779;50.150;8.680;2022-11-20T09:42:31;37.70;;;17.13;;
13415;SDS011;6779;50.150;8.680;2022-11-20T09:51:08;40.77;;;16.67;;
13415;SDS011;6779;50.150;8.680;2022-11-20T09:56:39;35.70;;;14.87;;
13415;SDS011;6779;50.150;8.680;2022-11-20T09:59:13;35.80;;;15.23;;
13415;SDS011;6779;50.150;8.680;2022-11-20T10:01:59;34.97;;;15.90;;
13415;SDS011;6779;50.150;8.680;2022-11-20T10:04:28;38.47;;;15.93;;
13415;SDS011;6779;50.150;8.680;2022-11-20T10:07:00;32.33;;;14.33;;
13415;SDS011;6779;50.150;8.680;2022-11-20T10:09:32;28.87;;;14.17;;
13415;SDS011;6779;50.150;8.680;2022-11-20T10:14:46;25.30;;;13.00;;
13415;SDS011;6779;50.150;8.680;2022-11-20T10:17:29;28.97;;;14.00;;
13415;SDS011;6779;50.150;8.680;2022-11-20T10:25:20;27.43;;;13.67;;
13415;SDS011;6779;50.150;8.680;2022-11-20T10:27:56;31.20;;;14.83;;
13415;SDS011;6779;50.150;8.680;2022-11-20T10:30:45;30.63;;;15.03;;
13415;SDS011;6779;50.150;8.680;2022-11-20T10:33:21;32.57;;;15.00;;
13415;SDS011;6779;50.150;8.680;2022-11-20T10:38:25;33.07;;;14.97;;
13415;SDS011;6779;50.150;8.680;2022-11-20T10:41:25;31.97;;;14.77;;
13415;SDS011;6779;50.150;8.680;2022-11-20T10:44:05;30.87;;;13.63;;
13415;SDS011;6779;50.150;8.680;2022-11-20T10:47:00;29.43;;;14.20;;
13415;SDS011;6779;50.150;8.680;2022-11-20T10:49:25;30.93;;;14.07;;
13415;SDS011;6779;50.150;8.680;2022-11-20T10:54:59;32.67;;;14.00;;
13415;SDS011;6779;50.150;8.680;2022-11-20T11:00:13;32.37;;;14.87;;
13415;SDS011;6779;50.150;8.680;2022-11-20T11:02:39;31.77;;;14.60;;
13415;SDS011;6779;50.150;8.680;2022-11-20T11:05:23;35.70;;;16.80;;
13415;SDS011;6779;50.150;8.680;2022-11-20T11:07:57;33.37;;;15.37;;
13415;SDS011;6779;50.150;8.680;2022-11-20T11:13:01;32.43;;;14.53;;
13415;SDS011;6779;50.150;8.680;2022-11-20T11:15:36;32.60;;;14.87;;
13415;SDS011;6779;50.150;8.680;2022-11-20T11:18:04;29.23;;;14.53;;
13415;SDS011;6779;50.150;8.680;2022-11-20T11:20:30;34.17;;;15.60;;
13415;SDS011;6779;50.150;8.680;2022-11-20T11:22:57;34.57;;;15.13;;
13415;SDS011;6779;50.150;8.680;2022-11-20T11:25:30;32.43;;;15.13;;
13415;SDS011;6779;50.150;8.680;2022-11-20T11:28:21;34.97;;;16.17;;
13415;SDS011;6779;50.150;8.680;2022-11-20T11:30:47;30.03;;;15.20;;
13415;SDS011;6779;50.150;8.680;2022-11-20T11:33:24;35.53;;;15.60;;
13415;SDS011;6779;50.150;8.680;2022-11-20T11:35:52;33.27;;;15.13;;
13415;SDS011;6779;50.150;8.680;2022-11-20T11:38:28;33.57;;;15.10;;
13415;SDS011;6779;50.150;8.680;2022-11-20T11:41:00;33.17;;;16.63;;
13415;SDS011;6779;50.150;8.680;2022-11-20T11:43:26;33.10;;;15.03;;
13415;SDS011;6779;50.150;8.680;2022-11-20T11:48:58;34.20;;;16.07;;
13415;SDS011;6779;50.150;8.680;2022-11-20T11:51:27;35.17;;;15.23;;
13415;SDS011;6779;50.150;8.680;2022-11-20T11:53:58;35.30;;;16.43;;
13415;SDS011;6779;50.150;8.680;2022-11-20T11:56:25;35.00;;;16.27;;
13415;SDS011;6779;50.150;8.680;2022-11-20T11:58:53;35.63;;;15.20;;
13415;SDS011;6779;50.150;8.680;2022-11-20T12:07:00;31.63;;;13.80;;
13415;SDS011;6779;50.150;8.680;2022-11-20T12:09:35;30.70;;;13.43;;
13415;SDS011;6779;50.150;8.680;2022-11-20T12:12:11;36.87;;;15.40;;
13415;SDS011;6779;50.150;8.680;2022-11-20T12:14:46;34.03;;;15.77;;
13415;SDS011;6779;50.150;8.680;2022-11-20T12:17:14;33.03;;;14.37;;
13415;SDS011;6779;50.150;8.680;2022-11-20T12:19:39;31.97;;;14.83;;
13415;SDS011;6779;50.150;8.680;2022-11-20T12:22:10;32.57;;;14.13;;
13415;SDS011;6779;50.150;8.680;2022-11-20T12:30:24;24.63;;;13.53;;
13415;SDS011;6779;50.150;8.680;2022-11-20T12:47:39;26.23;;;14.27;;
13415;SDS011;6779;50.150;8.680;2022-11-20T12:56:30;30.43;;;15.33;;
13415;SDS011;6779;50.150;8.680;2022-11-20T13:03:06;27.10;;;13.27;;
13415;SDS011;6779;50.150;8.680;2022-11-20T13:07:40;30.23;;;13.83;;
13415;SDS011;6779;50.150;8.680;2022-11-20T13:10:13;30.27;;;13.97;;
13415;SDS011;6779;50.150;8.680;2022-11-20T13:12:53;28.37;;;13.43;;
13415;SDS011;6779;50.150;8.680;2022-11-20T13:15:38;25.27;;;13.00;;
13415;SDS011;6779;50.150;8.680;2022-11-20T13:18:14;30.33;;;14.07;;
13415;SDS011;6779;50.150;8.680;2022-11-20T13:20:43;26.17;;;12.93;;
13415;SDS011;6779;50.150;8.680;2022-11-20T13:23:10;25.53;;;12.57;;
13415;SDS011;6779;50.150;8.680;2022-11-20T13:25:39;30.00;;;13.47;;
13415;SDS011;6779;50.150;8.680;2022-11-20T13:30:36;25.97;;;12.63;;
13415;SDS011;6779;50.150;8.680;2022-11-20T13:36:05;36.63;;;17.03;;
13415;SDS011;6779;50.150;8.680;2022-11-20T13:38:51;36.53;;;18.13;;
13415;SDS011;6779;50.150;8.680;2022-11-20T13:44:04;37.13;;;17.37;;
13415;SDS011;6779;50.150;8.680;2022-11-20T13:46:40;41.83;;;20.80;;
13415;SDS011;6779;50.150;8.680;2022-11-20T13:49:10;38.10;;;19.07;;
13415;SDS011;6779;50.150;8.680;2022-11-20T13:51:46;40.83;;;18.37;;
13415;SDS011;6779;50.150;8.680;2022-11-20T14:01:53;41.63;;;19.37;;
13415;SDS011;6779;50.150;8.680;2022-11-20T14:04:26;41.13;;;20.23;;
13415;SDS011;6779;50.150;8.680;2022-11-20T14:07:00;39.27;;;20.30;;
13415;SDS011;6779;50.150;8.680;2022-11-20T14:09:31;41.40;;;19.40;;
13415;SDS011;6779;50.150;8.680;2022-11-20T14:11:57;39.37;;;18.17;;
13415;SDS011;6779;50.150;8.680;2022-11-20T14:14:25;41.00;;;17.97;;
13415;SDS011;6779;50.150;8.680;2022-11-20T14:17:03;34.73;;;16.87;;
13415;SDS011;6779;50.150;8.680;2022-11-20T14:19:33;32.97;;;15.40;;
13415;SDS011;6779;50.150;8.680;2022-11-20T14:24:45;28.60;;;14.23;;
13415;SDS011;6779;50.150;8.680;2022-11-20T14:27:16;34.10;;;15.07;;
13415;SDS011;6779;50.150;8.680;2022-11-20T14:29:44;33.67;;;16.03;;
13415;SDS011;6779;50.150;8.680;2022-11-20T14:32:14;25.33;;;13.27;;
13415;SDS011;6779;50.150;8.680;2022-11-20T14:34:42;29.03;;;13.73;;
13415;SDS011;6779;50.150;8.680;2022-11-20T14:37:11;26.23;;;13.37;;
13415;SDS011;6779;50.150;8.680;2022-11-20T14:39:42;29.17;;;14.70;;
13415;SDS011;6779;50.150;8.680;2022-11-20T14:42:17;29.47;;;14.17;;
13415;SDS011;6779;50.150;8.680;2022-11-20T14:44:54;28.33;;;15.20;;
13415;SDS011;6779;50.150;8.680;2022-11-20T14:47:22;28.53;;;14.73;;
13415;SDS011;6779;50.150;8.680;2022-11-20T14:49:50;27.77;;;14.70;;
13415;SDS011;6779;50.150;8.680;2022-11-20T14:52:21;27.47;;;14.27;;
13415;SDS011;6779;50.150;8.680;2022-11-20T14:54:49;30.90;;;15.13;;
13415;SDS011;6779;50.150;8.680;2022-11-20T14:57:21;29.40;;;14.83;;
13415;SDS011;6779;50.150;8.680;2022-11-20T15:02:52;25.67;;;14.27;;
13415;SDS011;6779;50.150;8.680;2022-11-20T15:05:19;28.20;;;13.37;;
13415;SDS011;6779;50.150;8.680;2022-11-20T15:07:48;27.73;;;13.97;;
13415;SDS011;6779;50.150;8.680;2022-11-20T15:10:29;26.63;;;14.17;;
13415;SDS011;6779;50.150;8.680;2022-11-20T15:12:55;27.93;;;14.07;;
13415;SDS011;6779;50.150;8.680;2022-11-20T15:17:52;26.27;;;13.23;;
13415;SDS011;6779;50.150;8.680;2022-11-20T15:20:17;32.40;;;14.50;;
13415;SDS011;6779;50.150;8.680;2022-11-20T15:22:43;28.33;;;13.40;;
13415;SDS011;6779;50.150;8.680;2022-11-20T15:25:15;24.37;;;13.27;;
13415;SDS011;6779;50.150;8.680;2022-11-20T15:27:42;25.97;;;13.60;;
13415;SDS011;6779;50.150;8.680;2022-11-20T15:30:19;27.33;;;14.30;;
13415;SDS011;6779;50.150;8.680;2022-11-20T15:32:46;28.80;;;14.23;;
13415;SDS011;6779;50.150;8.680;2022-11-20T15:35:12;26.87;;;12.37;;
13415;SDS011;6779;50.150;8.680;2022-11-20T15:37:39;26.23;;;12.13;;
13415;SDS011;6779;50.150;8.680;2022-11-20T15:40:05;19.07;;;11.47;;
13415;SDS011;6779;50.150;8.680;2022-11-20T15:42:32;23.43;;;12.93;;
13415;SDS011;6779;50.150;8.680;2022-11-20T15:44:58;25.93;;;13.57;;
13415;SDS011;6779;50.150;8.680;2022-11-20T15:47:28;24.20;;;13.30;;
13415;SDS011;6779;50.150;8.680;2022-11-20T15:49:56;28.53;;;14.97;;
13415;SDS011;6779;50.150;8.680;2022-11-20T15:52:21;25.20;;;12.77;;
13415;SDS011;6779;50.150;8.680;2022-11-20T15:54:47;24.50;;;12.20;;
13415;SDS011;6779;50.150;8.680;2022-11-20T15:57:12;24.00;;;13.30;;
13415;SDS011;6779;50.150;8.680;2022-11-20T15:59:38;22.73;;;13.37;;
13415;SDS011;6779;50.150;8.680;2022-11-20T16:02:12;25.13;;;12.83;;
13415;SDS011;6779;50.150;8.680;2022-11-20T16:04:39;26.77;;;12.87;;
13415;SDS011;6779;50.150;8.680;2022-11-20T16:07:06;24.03;;;12.80;;
13415;SDS011;6779;50.150;8.680;2022-11-20T16:09:31;22.93;;;12.50;;
13415;SDS011;6779;50.150;8.680;2022-11-20T16:11:57;23.77;;;12.97;;
13415;SDS011;6779;50.150;8.680;2022-11-20T16:14:26;26.20;;;12.13;;
13415;SDS011;6779;50.150;8.680;2022-11-20T16:17:11;25.60;;;13.13;;
13415;SDS011;6779;50.150;8.680;2022-11-20T16:19:36;24.40;;;12.40;;
13415;SDS011;6779;50.150;8.680;2022-11-20T16:22:02;23.50;;;12.67;;
13415;SDS011;6779;50.150;8.680;2022-11-20T16:24:28;22.17;;;13.00;;
13415;SDS011;6779;50.150;8.680;2022-11-20T16:26:54;25.67;;;12.97;;
13415;SDS011;6779;50.150;8.680;2022-11-20T16:29:20;23.63;;;12.13;;